sensor_id;sensor_type;location;lat;lon;timestamp;P1;durP1;ratioP1;P2;durP2;ratioP2
36789;SDS011;22740;52.182;8.780;2023-04-15T00:00:14;7.97;;;5.18;;
36789;SDS011;22740;52.182;8.780;2023-04-15T00:06:17;8.77;;;5.30;;
36789;SDS011;22740;52.182;8.780;2023-04-15T00:12:19;9.43;;;5.97;;
36789;SDS011;22740;52.182;8.780;2023-04-15T00:18:22;7.28;;;5.32;;
36789;SDS011;22740;52.182;8.780;2023-04-15T00:24:24;7.50;;;5.43;;
36789;SDS011;22740;52.182;8.780;2023-04-15T00:30:26;7.82;;;5.50;;
36789;SDS011;22740;52.182;8.780;2023-04-15T00:36:28;7.75;;;5.20;;
36789;SDS011;22740;52.182;8.780;2023-04-15T00:42:30;9.05;;;6.28;;
36789;SDS011;22740;52.182;8.780;2023-04-15T00:54:37;8.65;;;5.60;;
36789;SDS011;22740;52.182;8.780;2023-04-15T01:00:38;8.60;;;5.88;;
36789;SDS011;22740;52.182;8.780;2023-04-15T01:06:41;13.55;;;5.97;;
36789;SDS011;22740;52.182;8.780;2023-04-15T01:12:43;9.38;;;6.00;;
36789;SDS011;22740;52.182;8.780;2023-04-15T01:18:45;9.15;;;5.70;;
36789;SDS011;22740;52.182;8.780;2023-04-15T01:24:57;8.00;;;5.47;;
36789;SDS011;22740;52.182;8.780;2023-04-15T01:31:05;8.23;;;5.30;;
36789;SDS011;22740;52.182;8.780;2023-04-15T01:37:12;10.00;;;6.20;;
36789;SDS011;22740;52.182;8.780;2023-04-15T01:43:14;10.60;;;5.90;;
36789;SDS011;22740;52.182;8.780;2023-04-15T01:49:16;8.07;;;5.65;;
36789;SDS011;22740;52.182;8.780;2023-04-15T01:55:18;9.65;;;5.40;;
36789;SDS011;22740;52.182;8.780;2023-04-15T02:01:19;8.38;;;5.78;;
36789;SDS011;22740;52.182;8.780;2023-04-15T02:07:22;8.40;;;6.10;;
36789;SDS011;22740;52.182;8.780;2023-04-15T02:13:24;7.38;;;5.25;;
36789;SDS011;22740;52.182;8.780;2023-04-15T02:19:26;8.00;;;5.65;;
36789;SDS011;22740;52.182;8.780;2023-04-15T02:25:28;8.82;;;5.85;;
36789;SDS011;22740;52.182;8.780;2023-04-15T02:31:29;8.95;;;5.57;;
36789;SDS011;22740;52.182;8.780;2023-04-15T02:37:37;8.52;;;5.50;;
36789;SDS011;22740;52.182;8.780;2023-04-15T02:43:44;9.75;;;6.55;;
36789;SDS011;22740;52.182;8.780;2023-04-15T02:49:45;9.85;;;6.38;;
36789;SDS011;22740;52.182;8.780;2023-04-15T02:55:47;11.63;;;6.97;;
36789;SDS011;22740;52.182;8.780;2023-04-15T03:01:49;11.23;;;7.30;;
36789;SDS011;22740;52.182;8.780;2023-04-15T03:07:51;12.07;;;6.93;;
36789;SDS011;22740;52.182;8.780;2023-04-15T03:13:53;11.10;;;6.70;;
36789;SDS011;22740;52.182;8.780;2023-04-15T03:19:55;11.48;;;7.40;;
36789;SDS011;22740;52.182;8.780;2023-04-15T03:26:00;11.45;;;7.50;;
36789;SDS011;22740;52.182;8.780;2023-04-15T03:32:02;11.27;;;8.27;;
36789;SDS011;22740;52.182;8.780;2023-04-15T03:38:04;10.68;;;7.20;;
36789;SDS011;22740;52.182;8.780;2023-04-15T03:44:06;11.30;;;8.25;;
36789;SDS011;22740;52.182;8.780;2023-04-15T03:50:08;12.43;;;8.30;;
36789;SDS011;22740;52.182;8.780;2023-04-15T03:56:10;12.63;;;8.00;;
36789;SDS011;22740;52.182;8.780;2023-04-15T04:02:12;13.70;;;8.02;;
36789;SDS011;22740;52.182;8.780;2023-04-15T04:08:14;13.75;;;8.70;;
36789;SDS011;22740;52.182;8.780;2023-04-15T04:14:16;14.55;;;9.32;;
36789;SDS011;22740;52.182;8.780;2023-04-15T04:20:18;14.77;;;9.52;;
36789;SDS011;22740;52.182;8.780;2023-04-15T04:26:20;17.27;;;10.48;;
36789;SDS011;22740;52.182;8.780;2023-04-15T04:32:21;17.27;;;10.48;;
36789;SDS011;22740;52.182;8.780;2023-04-15T04:38:23;16.77;;;11.23;;
36789;SDS011;22740;52.182;8.780;2023-04-15T04:44:25;18.08;;;12.13;;
36789;SDS011;22740;52.182;8.780;2023-04-15T04:50:27;20.23;;;12.45;;
36789;SDS011;22740;52.182;8.780;2023-04-15T04:56:29;18.98;;;12.30;;
36789;SDS011;22740;52.182;8.780;2023-04-15T05:02:31;17.17;;;11.38;;
36789;SDS011;22740;52.182;8.780;2023-04-15T05:08:33;20.70;;;12.48;;
36789;SDS011;22740;52.182;8.780;2023-04-15T05:14:35;20.15;;;13.27;;
36789;SDS011;22740;52.182;8.780;2023-04-15T05:20:37;19.75;;;12.55;;
36789;SDS011;22740;52.182;8.780;2023-04-15T05:26:39;18.27;;;12.48;;
36789;SDS011;22740;52.182;8.780;2023-04-15T05:32:43;18.47;;;12.60;;
36789;SDS011;22740;52.182;8.780;2023-04-15T05:38:44;19.00;;;12.02;;
36789;SDS011;22740;52.182;8.780;2023-04-15T05:44:46;19.48;;;12.40;;
36789;SDS011;22740;52.182;8.780;2023-04-15T05:50:48;19.98;;;12.65;;
36789;SDS011;22740;52.182;8.780;2023-04-15T05:56:50;20.17;;;12.90;;
36789;SDS011;22740;52.182;8.780;2023-04-15T06:02:52;20.10;;;13.00;;
36789;SDS011;22740;52.182;8.780;2023-04-15T06:08:55;22.48;;;14.10;;
36789;SDS011;22740;52.182;8.780;2023-04-15T06:14:57;18.35;;;12.52;;
36789;SDS011;22740;52.182;8.780;2023-04-15T06:21:00;19.50;;;12.77;;
36789;SDS011;22740;52.182;8.780;2023-04-15T06:27:02;18.65;;;13.05;;
36789;SDS011;22740;52.182;8.780;2023-04-15T06:33:04;20.23;;;12.48;;
36789;SDS011;22740;52.182;8.780;2023-04-15T06:39:06;20.58;;;13.25;;
36789;SDS011;22740;52.182;8.780;2023-04-15T06:45:09;19.60;;;12.35;;
36789;SDS011;22740;52.182;8.780;2023-04-15T06:51:11;22.02;;;13.63;;
36789;SDS011;22740;52.182;8.780;2023-04-15T06:57:13;21.85;;;13.57;;
36789;SDS011;22740;52.182;8.780;2023-04-15T07:03:15;21.00;;;13.68;;
36789;SDS011;22740;52.182;8.780;2023-04-15T07:09:17;17.95;;;12.27;;
36789;SDS011;22740;52.182;8.780;2023-04-15T07:15:18;20.38;;;12.75;;
36789;SDS011;22740;52.182;8.780;2023-04-15T07:21:21;19.88;;;12.55;;
36789;SDS011;22740;52.182;8.780;2023-04-15T07:27:24;22.50;;;13.68;;
36789;SDS011;22740;52.182;8.780;2023-04-15T07:33:26;23.88;;;13.05;;
36789;SDS011;22740;52.182;8.780;2023-04-15T07:39:28;20.48;;;13.13;;
36789;SDS011;22740;52.182;8.780;2023-04-15T07:45:30;20.50;;;12.82;;
36789;SDS011;22740;52.182;8.780;2023-04-15T07:51:32;20.38;;;12.70;;
36789;SDS011;22740;52.182;8.780;2023-04-15T07:57:35;20.90;;;12.90;;
36789;SDS011;22740;52.182;8.780;2023-04-15T08:03:37;18.85;;;12.50;;
36789;SDS011;22740;52.182;8.780;2023-04-15T08:09:40;19.27;;;12.18;;
36789;SDS011;22740;52.182;8.780;2023-04-15T08:15:42;21.17;;;13.38;;
36789;SDS011;22740;52.182;8.780;2023-04-15T08:21:44;19.08;;;11.57;;
36789;SDS011;22740;52.182;8.780;2023-04-15T08:27:46;17.27;;;10.77;;
36789;SDS011;22740;52.182;8.780;2023-04-15T08:33:48;17.17;;;11.27;;
36789;SDS011;22740;52.182;8.780;2023-04-15T08:39:52;15.27;;;10.15;;
36789;SDS011;22740;52.182;8.780;2023-04-15T08:45:54;18.38;;;11.48;;
36789;SDS011;22740;52.182;8.780;2023-04-15T08:51:59;18.10;;;11.23;;
36789;SDS011;22740;52.182;8.780;2023-04-15T08:58:02;14.52;;;9.30;;
36789;SDS011;22740;52.182;8.780;2023-04-15T09:04:04;15.95;;;9.48;;
36789;SDS011;22740;52.182;8.780;2023-04-15T09:10:08;15.03;;;9.90;;
36789;SDS011;22740;52.182;8.780;2023-04-15T09:16:12;16.27;;;8.77;;
36789;SDS011;22740;52.182;8.780;2023-04-15T09:22:15;13.73;;;8.52;;
36789;SDS011;22740;52.182;8.780;2023-04-15T09:28:22;13.07;;;7.45;;
36789;SDS011;22740;52.182;8.780;2023-04-15T09:34:34;9.73;;;6.18;;
36789;SDS011;22740;52.182;8.780;2023-04-15T09:40:38;9.82;;;6.60;;
36789;SDS011;22740;52.182;8.780;2023-04-15T09:46:41;8.85;;;6.13;;
36789;SDS011;22740;52.182;8.780;2023-04-15T09:52:45;8.93;;;5.95;;
36789;SDS011;22740;52.182;8.780;2023-04-15T09:58:47;10.35;;;6.68;;
36789;SDS011;22740;52.182;8.780;2023-04-15T10:04:56;10.15;;;6.30;;
36789;SDS011;22740;52.182;8.780;2023-04-15T10:11:00;9.95;;;6.63;;
36789;SDS011;22740;52.182;8.780;2023-04-15T10:17:03;9.20;;;6.60;;
36789;SDS011;22740;52.182;8.780;2023-04-15T10:23:05;9.43;;;6.55;;
36789;SDS011;22740;52.182;8.780;2023-04-15T10:29:12;10.48;;;6.97;;
36789;SDS011;22740;52.182;8.780;2023-04-15T10:35:14;10.70;;;6.88;;
36789;SDS011;22740;52.182;8.780;2023-04-15T10:41:19;9.43;;;6.75;;
36789;SDS011;22740;52.182;8.780;2023-04-15T10:47:31;9.32;;;6.63;;
36789;SDS011;22740;52.182;8.780;2023-04-15T10:53:33;9.77;;;6.63;;
36789;SDS011;22740;52.182;8.780;2023-04-15T10:59:58;11.32;;;6.70;;
36789;SDS011;22740;52.182;8.780;2023-04-15T11:06:04;7.38;;;6.00;;
36789;SDS011;22740;52.182;8.780;2023-04-15T11:12:07;8.57;;;5.68;;
36789;SDS011;22740;52.182;8.780;2023-04-15T11:18:17;7.43;;;5.20;;
36789;SDS011;22740;52.182;8.780;2023-04-15T11:24:24;7.80;;;4.85;;
36789;SDS011;22740;52.182;8.780;2023-04-15T11:36:32;6.60;;;4.70;;
36789;SDS011;22740;52.182;8.780;2023-04-15T11:42:34;5.07;;;3.60;;
36789;SDS011;22740;52.182;8.780;2023-04-15T11:48:49;4.65;;;3.30;;
36789;SDS011;22740;52.182;8.780;2023-04-15T11:54:51;4.63;;;3.35;;
36789;SDS011;22740;52.182;8.780;2023-04-15T12:01:02;5.03;;;3.38;;
36789;SDS011;22740;52.182;8.780;2023-04-15T12:07:04;4.88;;;3.20;;
36789;SDS011;22740;52.182;8.780;2023-04-15T12:13:08;6.65;;;4.07;;
36789;SDS011;22740;52.182;8.780;2023-04-15T12:19:11;5.43;;;3.88;;
36789;SDS011;22740;52.182;8.780;2023-04-15T12:25:14;5.07;;;4.10;;
36789;SDS011;22740;52.182;8.780;2023-04-15T12:31:16;5.75;;;4.50;;
36789;SDS011;22740;52.182;8.780;2023-04-15T12:37:18;6.43;;;5.05;;
36789;SDS011;22740;52.182;8.780;2023-04-15T12:43:20;8.77;;;6.38;;
36789;SDS011;22740;52.182;8.780;2023-04-15T12:49:22;9.43;;;7.00;;
36789;SDS011;22740;52.182;8.780;2023-04-15T12:55:24;8.73;;;6.25;;
36789;SDS011;22740;52.182;8.780;2023-04-15T13:01:26;9.70;;;6.35;;
36789;SDS011;22740;52.182;8.780;2023-04-15T13:07:28;8.73;;;6.45;;
36789;SDS011;22740;52.182;8.780;2023-04-15T13:13:30;11.18;;;6.65;;
36789;SDS011;22740;52.182;8.780;2023-04-15T13:19:32;10.20;;;7.30;;
36789;SDS011;22740;52.182;8.780;2023-04-15T13:25:34;11.43;;;8.10;;
36789;SDS011;22740;52.182;8.780;2023-04-15T13:31:36;12.50;;;8.48;;
36789;SDS011;22740;52.182;8.780;2023-04-15T13:37:38;12.48;;;9.38;;
36789;SDS011;22740;52.182;8.780;2023-04-15T13:43:39;18.25;;;10.48;;
36789;SDS011;22740;52.182;8.780;2023-04-15T13:49:42;15.05;;;10.07;;
36789;SDS011;22740;52.182;8.780;2023-04-15T13:55:44;16.73;;;11.45;;
36789;SDS011;22740;52.182;8.780;2023-04-15T14:01:46;17.98;;;11.95;;
36789;SDS011;22740;52.182;8.780;2023-04-15T14:07:48;18.02;;;12.45;;
36789;SDS011;22740;52.182;8.780;2023-04-15T14:13:50;23.83;;;12.68;;
36789;SDS011;22740;52.182;8.780;2023-04-15T14:19:52;23.98;;;14.85;;
36789;SDS011;22740;52.182;8.780;2023-04-15T14:25:54;24.58;;;15.75;;
36789;SDS011;22740;52.182;8.780;2023-04-15T14:31:56;24.58;;;15.23;;
36789;SDS011;22740;52.182;8.780;2023-04-15T14:38:11;25.52;;;15.88;;
36789;SDS011;22740;52.182;8.780;2023-04-15T14:44:13;28.55;;;16.63;;
36789;SDS011;22740;52.182;8.780;2023-04-15T14:50:15;29.23;;;17.55;;
36789;SDS011;22740;52.182;8.780;2023-04-15T14:56:24;31.48;;;18.30;;
36789;SDS011;22740;52.182;8.780;2023-04-15T15:02:26;30.90;;;18.45;;
36789;SDS011;22740;52.182;8.780;2023-04-15T15:08:40;32.10;;;17.57;;
36789;SDS011;22740;52.182;8.780;2023-04-15T15:14:42;38.10;;;19.50;;
36789;SDS011;22740;52.182;8.780;2023-04-15T15:20:43;35.33;;;19.38;;
36789;SDS011;22740;52.182;8.780;2023-04-15T15:26:46;39.33;;;20.00;;
36789;SDS011;22740;52.182;8.780;2023-04-15T15:32:47;36.38;;;20.30;;
36789;SDS011;22740;52.182;8.780;2023-04-15T15:38:50;41.05;;;20.73;;
36789;SDS011;22740;52.182;8.780;2023-04-15T15:44:52;41.13;;;21.83;;
36789;SDS011;22740;52.182;8.780;2023-04-15T15:50:54;38.28;;;20.73;;
36789;SDS011;22740;52.182;8.780;2023-04-15T15:56:56;43.67;;;21.75;;
36789;SDS011;22740;52.182;8.780;2023-04-15T16:17:35;37.20;;;20.63;;
36789;SDS011;22740;52.182;8.780;2023-04-15T16:23:37;37.50;;;21.60;;
36789;SDS011;22740;52.182;8.780;2023-04-15T16:50:32;47.63;;;23.35;;
36789;SDS011;22740;52.182;8.780;2023-04-15T16:56:33;43.97;;;23.27;;
36789;SDS011;22740;52.182;8.780;2023-04-15T17:02:35;38.88;;;22.40;;
36789;SDS011;22740;52.182;8.780;2023-04-15T17:08:38;42.47;;;22.80;;
36789;SDS011;22740;52.182;8.780;2023-04-15T17:14:40;43.00;;;23.52;;
36789;SDS011;22740;52.182;8.780;2023-04-15T17:20:42;41.53;;;22.13;;
36789;SDS011;22740;52.182;8.780;2023-04-15T17:26:44;45.05;;;22.25;;
36789;SDS011;22740;52.182;8.780;2023-04-15T17:32:47;48.50;;;23.63;;
36789;SDS011;22740;52.182;8.780;2023-04-15T17:38:55;41.75;;;23.73;;
36789;SDS011;22740;52.182;8.780;2023-04-15T17:45:05;53.05;;;24.83;;
36789;SDS011;22740;52.182;8.780;2023-04-15T17:51:13;51.28;;;24.88;;
36789;SDS011;22740;52.182;8.780;2023-04-15T17:57:22;45.35;;;24.55;;
36789;SDS011;22740;52.182;8.780;2023-04-15T18:03:32;47.90;;;25.25;;
36789;SDS011;22740;52.182;8.780;2023-04-15T18:09:40;53.33;;;27.65;;
36789;SDS011;22740;52.182;8.780;2023-04-15T18:15:51;57.28;;;27.15;;
36789;SDS011;22740;52.182;8.780;2023-04-15T18:21:59;62.72;;;28.63;;
36789;SDS011;22740;52.182;8.780;2023-04-15T18:28:08;58.20;;;28.08;;
36789;SDS011;22740;52.182;8.780;2023-04-15T18:34:17;56.47;;;28.02;;
36789;SDS011;22740;52.182;8.780;2023-04-15T18:40:25;57.70;;;29.13;;
36789;SDS011;22740;52.182;8.780;2023-04-15T18:46:34;52.75;;;28.67;;
36789;SDS011;22740;52.182;8.780;2023-04-15T18:52:43;54.50;;;28.38;;
36789;SDS011;22740;52.182;8.780;2023-04-15T18:58:52;52.63;;;29.15;;
36789;SDS011;22740;52.182;8.780;2023-04-15T19:05:20;63.15;;;30.33;;
36789;SDS011;22740;52.182;8.780;2023-04-15T19:11:35;67.22;;;29.77;;
36789;SDS011;22740;52.182;8.780;2023-04-15T19:17:44;62.53;;;29.05;;
36789;SDS011;22740;52.182;8.780;2023-04-15T19:23:54;61.13;;;29.48;;
36789;SDS011;22740;52.182;8.780;2023-04-15T19:30:05;66.32;;;32.80;;
36789;SDS011;22740;52.182;8.780;2023-04-15T19:36:14;68.82;;;31.15;;
36789;SDS011;22740;52.182;8.780;2023-04-15T19:42:24;65.93;;;31.05;;
36789;SDS011;22740;52.182;8.780;2023-04-15T19:48:40;69.15;;;32.97;;
36789;SDS011;22740;52.182;8.780;2023-04-15T19:54:48;71.45;;;34.58;;
36789;SDS011;22740;52.182;8.780;2023-04-15T20:00:56;72.90;;;35.13;;
36789;SDS011;22740;52.182;8.780;2023-04-15T20:07:12;68.78;;;36.60;;
36789;SDS011;22740;52.182;8.780;2023-04-15T20:13:20;64.53;;;36.17;;
36789;SDS011;22740;52.182;8.780;2023-04-15T20:19:29;64.55;;;33.35;;
36789;SDS011;22740;52.182;8.780;2023-04-15T20:25:38;67.65;;;34.40;;
36789;SDS011;22740;52.182;8.780;2023-04-15T20:31:48;71.75;;;37.05;;
36789;SDS011;22740;52.182;8.780;2023-04-15T20:37:57;68.22;;;35.58;;
36789;SDS011;22740;52.182;8.780;2023-04-15T20:44:06;65.43;;;35.42;;
36789;SDS011;22740;52.182;8.780;2023-04-15T20:50:14;66.30;;;37.10;;
36789;SDS011;22740;52.182;8.780;2023-04-15T20:56:23;64.10;;;34.67;;
36789;SDS011;22740;52.182;8.780;2023-04-15T21:02:38;62.80;;;35.30;;
36789;SDS011;22740;52.182;8.780;2023-04-15T21:14:54;62.92;;;34.95;;
36789;SDS011;22740;52.182;8.780;2023-04-15T21:21:02;56.47;;;34.35;;
36789;SDS011;22740;52.182;8.780;2023-04-15T21:27:11;59.30;;;35.15;;
36789;SDS011;22740;52.182;8.780;2023-04-15T21:33:19;63.92;;;36.13;;
36789;SDS011;22740;52.182;8.780;2023-04-15T21:39:27;62.80;;;36.83;;
36789;SDS011;22740;52.182;8.780;2023-04-15T21:45:35;58.72;;;36.40;;
36789;SDS011;22740;52.182;8.780;2023-04-15T21:52:06;60.80;;;36.95;;
36789;SDS011;22740;52.182;8.780;2023-04-15T21:58:14;56.55;;;36.67;;
36789;SDS011;22740;52.182;8.780;2023-04-15T22:04:23;56.00;;;35.75;;
36789;SDS011;22740;52.182;8.780;2023-04-15T22:10:38;57.05;;;34.40;;
36789;SDS011;22740;52.182;8.780;2023-04-15T22:16:46;51.63;;;33.50;;
36789;SDS011;22740;52.182;8.780;2023-04-15T22:22:54;48.05;;;32.70;;
36789;SDS011;22740;52.182;8.780;2023-04-15T22:29:02;49.50;;;32.60;;
36789;SDS011;22740;52.182;8.780;2023-04-15T22:35:11;51.05;;;32.90;;
36789;SDS011;22740;52.182;8.780;2023-04-15T22:41:19;49.80;;;33.03;;
36789;SDS011;22740;52.182;8.780;2023-04-15T22:47:27;55.83;;;34.20;;
36789;SDS011;22740;52.182;8.780;2023-04-15T22:53:35;51.10;;;33.08;;
36789;SDS011;22740;52.182;8.780;2023-04-15T22:59:43;52.83;;;34.53;;
36789;SDS011;22740;52.182;8.780;2023-04-15T23:05:59;51.78;;;33.67;;
36789;SDS011;22740;52.182;8.780;2023-04-15T23:12:14;49.67;;;32.58;;
36789;SDS011;22740;52.182;8.780;2023-04-15T23:18:22;46.78;;;31.70;;
36789;SDS011;22740;52.182;8.780;2023-04-15T23:24:30;47.42;;;32.78;;
36789;SDS011;22740;52.182;8.780;2023-04-15T23:30:38;50.22;;;32.55;;
36789;SDS011;22740;52.182;8.780;2023-04-15T23:36:46;45.75;;;32.05;;
36789;SDS011;22740;52.182;8.780;2023-04-15T23:42:54;43.38;;;31.05;;
36789;SDS011;22740;52.182;8.780;2023-04-15T23:49:02;46.47;;;31.30;;
36789;SDS011;22740;52.182;8.780;2023-04-15T23:55:10;45.38;;;30.52;;
